Campanya meteocatpedra

Dades de l'estació automàtica Alcarràs

?
?
Resum diari 20:00 TU
Dades diàries de l'estació meteorològica
Temperatura mitjana 12.4 °C
Temperatura màxima 19.7 °C 13:41 TU
Temperatura mínima 6.2 °C 6:03 TU
Humitat relativa mitjana 86%
Precipitació acumulada 0.2 mm
Ratxa màxima del vent (2 m) 13.3 km/h - 168º 12:05 TU

El tram horari està expressat en Temps Universal (TU). Cal sumar una hora en horari d'hivern i dues en horari d'estiu per passar a l'hora oficial.

Alcarràs

Metadades estació meteorol´gica
Municipi Alcarràs
Comarca Segrià
Altitud 122 m
Data alta 31.07.2013
Estat actual Operativa
Dades de període
Període
TU
TM
°C
TX
°C
TN
°C
HRM
%
PPT
mm
VVM (2 m)
km/h
DVM (2 m)
graus
VVX (2 m)
km/h
00:00 - 00:30 10.1 10.4 9.8 100 0.0 0.4 197 2.2
00:30 - 01:00 9.8 9.9 9.5 100 0.0 0.4 197 4.7
01:00 - 01:30 9.2 9.6 8.8 100 0.0 0.4 318 2.5
01:30 - 02:00 9.0 9.5 8.6 100 0.0 0.0 0 0.0
02:00 - 02:30 8.8 9.0 8.6 100 0.0 0.4 315 2.9
02:30 - 03:00 8.4 8.5 8.2 100 0.0 0.0 319 1.1
03:00 - 03:30 8.4 8.7 8.2 100 0.0 0.0 219 2.2
03:30 - 04:00 7.9 8.3 7.6 100 0.0 0.0 319 2.2
04:00 - 04:30 7.2 7.5 6.8 100 0.0 0.0 323 1.8
04:30 - 05:00 6.8 7.0 6.6 100 0.0 0.0 0 0.0
05:00 - 05:30 6.6 6.7 6.4 100 0.0 0.4 346 2.2
05:30 - 06:00 6.4 6.6 6.3 100 0.2 1.1 345 2.9
06:00 - 06:30 6.4 6.8 6.2 100 0.0 0.7 105 2.5
06:30 - 07:00 6.7 7.0 6.6 100 0.0 0.7 22 3.2
07:00 - 07:30 7.7 8.6 6.8 100 0.0 0.4 22 2.9
07:30 - 08:00 9.2 9.8 8.6 100 0.0 0.4 18 3.2
08:00 - 08:30 10.9 12.0 9.8 94 0.0 0.7 258 4.7
08:30 - 09:00 12.4 13.1 11.9 83 0.0 1.8 250 6.1
09:00 - 09:30 13.7 14.2 12.8 76 0.0 1.8 255 9.0
09:30 - 10:00 14.2 14.8 13.8 73 0.0 2.2 305 6.1
10:00 - 10:30 15.3 16.1 14.8 70 0.0 2.2 262 7.2
10:30 - 11:00 16.3 16.9 15.7 65 0.0 2.5 254 7.2
11:00 - 11:30 17.2 17.8 16.6 62 0.0 2.5 236 9.0
11:30 - 12:00 17.5 18.2 17.1 60 0.0 3.2 287 10.1
12:00 - 12:30 18.2 18.7 17.7 60 0.0 2.5 252 13.3
12:30 - 13:00 18.3 18.9 18.0 61 0.0 3.2 284 10.1
13:00 - 13:30 18.8 19.3 18.4 59 0.0 2.9 294 9.7
13:30 - 14:00 19.0 19.7 18.3 59 0.0 2.2 299 9.0
14:00 - 14:30 19.1 19.5 18.7 59 0.0 3.2 295 10.4
14:30 - 15:00 19.0 19.4 18.7 61 0.0 2.9 297 7.6
15:00 - 15:30 19.2 19.6 18.8 61 0.0 1.8 314 7.2
15:30 - 16:00 18.6 18.7 18.3 64 0.0 1.1 325 6.5
16:00 - 16:30 17.5 18.3 16.5 73 0.0 0.0 353 1.8
16:30 - 17:00 15.5 16.4 14.3 86 0.0 0.0 8 1.4
17:00 - 17:30 13.5 14.3 12.8 99 0.0 0.0 13 1.1
17:30 - 18:00 12.2 12.8 11.7 100 0.0 0.0 10 1.4
18:00 - 18:30 11.3 11.7 10.9 100 0.0 0.0 0 0.0
18:30 - 19:00 10.8 11.2 10.6 100 0.0 0.0 9 1.4
19:00 - 19:30 10.2 10.7 9.9 100 0.0 0.0 6 1.1
19:30 - 20:00 10.0 10.4 9.7 100 0.0 0.4 22 2.2
20:00 - 20:30 9.8 10.2 9.3 100 0.0 0.4 353 1.8
20:30 - 21:00 (s/d) (s/d) (s/d) (s/d) (s/d) (s/d) (s/d) (s/d)

Les dades en taronja només han passat un control de qualitat automàtic. Resta pendent la seva validació definitiva.